Taller para Instructores 2018

Taller para Instructores de Piloto Privado de Avión

Nos visitaron en el mes de Julio del 2018  los integrantes de la ANAC y la Federación Argentina de Aeroclubes con el motivo de realizar el Taller para Instructores de Piloto Privado de Avión. Agradecemos en su confianza para con nosotros como así también de la presencia de los instructores de la zona.

Facebook Aeroclub Mar del Plata

Informe Climatico
MAR DEL PLATA AR
Metar
SAZM 132230Z 02005KT 8000 -RA FEW025 SCT033 OVC080 17/15 Q1010

22:30 UTC

Wind: 20° 5kt

Visibility: 8000 m

Sky: FEW 2500 ft

Temp: 17 deg C / 62.6 deg F

Dewpoint: 15 deg C / 59 deg F

Pressure: 1010 hPa

TAF
TAF SAZM 131700Z 1318/1418 05010G20KT CAVOK TX26/1418Z TN13/1410Z BECMG 1319/1322 05020G35KT PROB40 TEMPO 1400/1404 5000 TSRA BKN020 FEW035CB BKN050 BECMG 1406/1409 02015G25KT 7000 RADZ SCT010 BKN035 BECMG 1415/1418 23015KT 6000 SHRA BKN015 FEW025TCU